Tiempo atmosférico en la estación meteorológica de Rojales, Alacant/Alicante (31 m.)



Fecha
DESCASC
Temp. máxima en grados centígrados (hora)
DESCASC
Temp. mínima en grados centígrados (hora)
DESCASC
Temp. media en grados centígrados
DESCASC
Racha de viento máxima en m/sg (hora)
DESCASC
Velocidad máxima media en intervalos de 10 minutos(hora)
DESCASC
Precipitaciones diarias en mm
DESCASC
Precipitaciones de 00:00 a 06:00 en mm
DESCASC
Precipitaciones de 06:00 a 12:00 en mm
DESCASC
Precipitaciones de 12:00 a 18:00 en mm
DESCASC
Precipitaciones de 18:00 a 24:00 en mm
DESCASC
24-11-2020 18.2 (14:30) 6.1 (00:00) 12.2 5.28 (21:10) 3.33 (20:30) 0 0 0 0 0
23-11-2020 18.6 (14:40) 5.8 (00:00) 12.2 5.28 (09:50) 3.33 (11:00) 0 0 0 0 0
22-11-2020 19 (14:50) 7.3 (00:00) 13.2 5.83 (16:30) 3.33 (16:30) 0 0 0 0 0
21-11-2020 18.9 (13:20) 9.6 (00:00) 14.3 6.39 (14:40) 3.89 (15:50) 0 0 0 0 0
20-11-2020 19.6 (12:40) 10.4 (00:00) 15 8.89 (13:40) 5.56 (13:40) 0.2 0 0.2 0 0
19-11-2020 22 (14:40) 13.2 (00:00) 17.6 5 (16:10) 3.33 (16:40) 0 0 0 0 0
18-11-2020 21.3 (15:30) 14 (00:00) 17.6 5.28 (16:30) 3.61 (16:10) 0 0 0 0 0
17-11-2020 22.5 (14:30) 14.4 (00:00) 18.4 6.67 (15:40) 3.61 (15:40) 0 0 0 0 0
16-11-2020 27.4 (15:30) 13.9 (00:00) 20.6 11.94 (16:40) 7.5 (16:30) 0 0 0 0 0
15-11-2020 26 (15:10) 14 (00:00) 20 8.89 (19:30) 5 (19:30) 0 0 0 0 0
14-11-2020 19.7 (14:10) 15 (00:00) 17.4 5 (21:20) 3.06 (21:10) 0.6 0 0 0.6 0
13-11-2020 22.7 (14:20) 15 (00:00) 18.9 6.94 (15:50) 4.17 (16:00) 0 0 0 0 0
12-11-2020 20.8 (13:40) 9.8 (00:00) 15.3 7.78 (16:40) 4.72 (17:00) 0.2 0 0.2 0 0
11-11-2020 20.6 (13:00) 11.1 (00:00) 15.9 5.28 (13:50) 3.61 (16:00) 0 0 0 0 0
10-11-2020 21.8 (13:50) 12.4 (00:00) 17.1 7.22 (15:10) 3.89 (16:30) 0 0 0 0 0
09-11-2020 23 (14:20) 12.3 (00:00) 17.7 6.39 (16:00) 4.44 (16:10) 0.2 0 0.2 0 0
08-11-2020 21.4 (12:50) 11.5 (00:00) 16.4 6.39 (13:50) 3.61 (13:50) 0 0 0 0 0
07-11-2020 24.4 (14:30) 15.7 (00:00) 20 15.83 (05:50) 9.44 (05:40) 0.4 0 0.4 0 0
06-11-2020 22.8 (12:30) 17.9 (00:00) 20.3 13.61 (12:40) 8.33 (12:40) 0 0 0 0 0
05-11-2020 21.9 (12:00) 18.5 (00:00) 20.2 15.56 (07:20) 9.44 (07:40) 0.2 0 0 0.2 0
04-11-2020 20.9 (11:20) 13.9 (00:00) 17.4 10.56 (16:20) 6.94 (16:00) 0.4 0 0.4 0 0
03-11-2020 21.4 (13:50) 13.9 (00:00) 17.6 10.28 (20:20) 5.56 (20:20) 0.2 0.2 0 0 0
02-11-2020 21.9 (12:40) 13.3 (00:00) 17.6 7.22 (14:10) 5 (14:10) 0.2 0.2 0 0 0
01-11-2020 22.9 (13:20) 11.4 (00:00) 17.1 5.28 (15:10) 3.33 (15:00) 0 0 0 0 0
31-10-2020 24.8 (13:10) 9.5 (00:00) 17.1 7.78 (15:50) 4.17 (16:50) 0.2 0 0.2 0 0
30-10-2020 25.5 (13:50) 10.4 (00:00) 17.9 5 (16:00) 3.33 (16:10) 0.2 0 0.2 0 0
29-10-2020 23.3 (13:10) 13 (00:00) 18.1 6.67 (13:30) 3.61 (13:50) 0 0 0 0 0
28-10-2020 25.3 (14:40) 11.7 (00:00) 18.5 7.5 (16:20) 5 (10:10) 0 0 0 0 0
27-10-2020 22.5 (15:00) 10.1 (00:00) 16.3 8.33 (00:30) 5.83 (00:20) 0 0 0 0 0
26-10-2020 21 (15:30) 15.4 (00:00) 18.2 16.11 (13:00) 9.44 (13:00) 0 0 0 0 0

Gráficas

Temp. máximas Temp. mínimas Temp. medias Precipitaciones Rachas de viento máximas Velocidades máximas media en intervalos de 10 minutos

Datos horarios

Fecha y hora oficial Temperatura (ºC) Velocidad del viento (km/h) Dirección del viento Racha (km/h) Dirección de racha Precipitación (mm) Presión (hPa) Tendencia (hPa) Humedad (%)